Ponce, PR

6:47 AM AST on January 28, 2015 (GMT -0400)
City | Change Station
CLOSE
Current Station
Personal Weather Station
Location: Ponce, PR
Elevation: 36 ft
Nearby Weather Stations

Elev 36 ft 18.00 °N, 66.64 °W | Updated 11 seconds ago

Scattered Clouds
Scattered Clouds
71.2 °F
Feels Like 71.2 °F
N
1.6
Wind Variable Wind from North
Gusts 3.8 mph

Today
High -- | Low -- °F
--% Chance of Precip.
Yesterday
High -- | Low -- °F
Precip. -- in
7:00 AM 6:18 PM
Waxing Gibbous, 63% visible
Pressure 29.94 in
Visibility 8.0 miles
Clouds Few 2000 ft
Scattered Clouds 5000 ft
Dew Point 68 °F
Humidity 90%
Rainfall 0.00 in
Snow Depth Not available.
UV 0 out of 12
Pollen Not available.
Air Quality Not available.
Flu Activity Not available.
METAR TJPS 280950Z 05005KT 8SM FEW020 SCT050 22/20 A2994

More Conditions Fewer Conditions

Pressure 29.94 in
Visibility 8.0 miles
Clouds Few 2000 ft
Scattered Clouds 5000 ft
Dew Point 68 °F
Humidity 90%
Rainfall 0.00 in
Snow Depth Not available.
UV 0 out of 12
Pollen Not available.
Air Quality Not available.
Flu Activity Not available.
METAR TJPS 280950Z 05005KT 8SM FEW020 SCT050 22/20 A2994

More Conditions Fewer Conditions

10-Day Weather Forecast

Almanac

Astronomy

Jan. 28, 2015 Rise Set
Actual Time
Civil Twilight
Nautical Twilight
Astronomical Twilight
Moon
Length of Visible Light
Length of Day
Tomorrow will be .
, % of the Moon is Illuminated

Today's Extremes

State Highs State Lows

Community

WunderPhotos

Upload Photos

1,791,121 photos uploaded!

WunderBlogs® & News

Nearby

Air Quality

  Air Quality AQ Index Pollutant
Not available.

Snow Depth

Station Depth Elevation

Earthquake Activity

City Distance Mag. Time & Date
Minimum magnitude displayed is 2.5.

Coastal Water Temperatures

Place Temperature

Nearby Weather Stations